»·PEaware :: N751LU S50-65S

N751LU :: S50-65S

FLIGHT INFORMATION

Flight Status: Arrived
Operator: Privately registered:
United States
More flights under this callsign
Pilot: Ewen S. (18928)
Aircraft: PILATUS PC-12 EAGLE
(PC12)
More flights by this aircraft type
Origin: S50 Auburn Mun
United States
Destination: 65S Boundary Co
United States
More flights between these airports :: More routes between these airports
Route: BLAKO1 BLAKO NORMY V120 GEG V448 KARPS
File this flight plan on PilotEdge
Remarks:
Altitude:
(Current/Filed)
27,000ft
Speed:
(Current/Filed)
265kts
Departed: 17-Dec-18 01:41 PM
Arrived: 17-Dec-18 02:58 PM
Distance/Time
Traveled:
252nm/1:16
Distance/Time
To Go:
Arrived

Flight Plot

Page will automatically refresh every two minutes.

Flight plan parsing failed; only flown route is shown


Map Options




Map Legend


Flown Route
Filed Route
Departure Airport
Arrival Airport
Navaid (VOR, NDB)
Fix

Horizontal Profiles

Position Reports

Time Latitude Longitude Heading Altitude Ground
Speed
17-Dec-18 12:58 47.322360 -122.225099 179 68ft 0kts
17-Dec-18 12:59 47.322360 -122.225099 179 68ft 0kts
17-Dec-18 13:00 47.322360 -122.225099 179 68ft 0kts
17-Dec-18 13:01 47.322360 -122.225099 179 68ft 0kts
17-Dec-18 13:02 47.322360 -122.225099 179 68ft 0kts
17-Dec-18 13:03 47.322360 -122.225099 179 68ft 0kts
17-Dec-18 13:04 47.322360 -122.225099 179 68ft 0kts
17-Dec-18 13:05 47.322360 -122.225099 179 68ft 0kts
17-Dec-18 13:06 47.322359 -122.225099 179 68ft 0kts
17-Dec-18 13:07 47.322356 -122.225099 179 68ft 0kts
17-Dec-18 13:08 47.322353 -122.225098 179 68ft 0kts
17-Dec-18 13:09 47.322350 -122.225098 179 68ft 0kts
17-Dec-18 13:10 47.322348 -122.225098 179 68ft 0kts
17-Dec-18 13:11 47.322345 -122.225098 179 68ft 0kts
17-Dec-18 13:12 47.322342 -122.225098 179 68ft 0kts
17-Dec-18 13:13 47.322339 -122.225098 179 68ft 0kts
17-Dec-18 13:15 47.322336 -122.225098 179 68ft 0kts
17-Dec-18 13:16 47.322333 -122.225098 179 68ft 0kts
17-Dec-18 13:17 47.322330 -122.225098 179 68ft 0kts
17-Dec-18 13:18 47.322327 -122.225098 179 68ft 0kts
17-Dec-18 13:19 47.322325 -122.225098 179 68ft 0kts
17-Dec-18 13:20 47.322322 -122.225098 179 68ft 0kts
17-Dec-18 13:21 47.322319 -122.225098 179 68ft 0kts
17-Dec-18 13:22 47.322316 -122.225098 179 68ft 0kts
17-Dec-18 13:23 47.322286 -122.225109 205 68ft 2kts
17-Dec-18 13:24 47.324287 -122.225844 359 68ft 19kts
17-Dec-18 13:25 47.330175 -122.225909 358 68ft 18kts
17-Dec-18 13:26 47.332087 -122.225792 22 68ft 1kts
17-Dec-18 13:27 47.332128 -122.225748 35 68ft 0kts
17-Dec-18 13:28 47.332128 -122.225748 35 68ft 0kts
17-Dec-18 13:29 47.332128 -122.225748 35 68ft 0kts
17-Dec-18 13:30 47.332128 -122.225748 35 68ft 0kts
17-Dec-18 13:31 47.332128 -122.225748 35 68ft 0kts
17-Dec-18 13:32 47.332128 -122.225748 35 68ft 0kts
17-Dec-18 13:32 47.332128 -122.225748 35 68ft 0kts
17-Dec-18 13:34 47.332128 -122.225748 35 68ft 0kts
17-Dec-18 13:34 47.332128 -122.225748 35 68ft 0kts
17-Dec-18 13:36 47.332128 -122.225748 35 68ft 0kts
17-Dec-18 13:36 47.332128 -122.225748 35 68ft 0kts
17-Dec-18 13:37 47.332133 -122.225743 35 68ft 0kts
17-Dec-18 13:38 47.332256 -122.226183 272 68ft 0kts
17-Dec-18 13:40 47.332256 -122.226187 272 68ft 0kts
17-Dec-18 13:40 47.328297 -122.226663 179 68ft 76kts
17-Dec-18 13:41 47.298167 -122.223892 177 1058ft 160kts
17-Dec-18 13:42 47.272859 -122.178386 78 1490ft 203kts
17-Dec-18 13:43 47.303735 -122.105771 54 2710ft 211kts
17-Dec-18 13:44 47.332917 -122.035088 62 4527ft 197kts
17-Dec-18 13:45 47.359029 -121.960130 72 6010ft 208kts
17-Dec-18 13:46 47.382053 -121.882435 71 7502ft 205kts
17-Dec-18 13:47 47.405043 -121.804772 71 9007ft 206kts
17-Dec-18 13:48 47.427782 -121.727573 71 10599ft 205kts
17-Dec-18 13:49 47.430052 -121.646693 101 12198ft 198kts
17-Dec-18 13:50 47.427639 -121.564227 96 13793ft 204kts
17-Dec-18 13:51 47.426236 -121.477242 95 15407ft 217kts
17-Dec-18 13:52 47.424869 -121.386740 94 17008ft 222kts
17-Dec-18 13:53 47.423359 -121.295137 93 18606ft 223kts
17-Dec-18 13:54 47.421771 -121.203572 91 20196ft 222kts
17-Dec-18 13:55 47.420125 -121.112845 89 21781ft 219kts
17-Dec-18 13:56 47.418447 -121.023617 87 23231ft 221kts
17-Dec-18 13:57 47.416511 -120.924501 87 24013ft 257kts
17-Dec-18 13:58 47.414209 -120.814888 87 24734ft 275kts
17-Dec-18 13:59 47.411745 -120.700235 87 25441ft 282kts
17-Dec-18 14:00 47.409107 -120.583808 86 26139ft 286kts
17-Dec-18 14:01 47.406358 -120.466095 86 26838ft 287kts
17-Dec-18 14:02 47.403461 -120.346067 87 27062ft 304kts
17-Dec-18 14:03 47.400189 -120.218727 87 27051ft 314kts
17-Dec-18 14:04 47.396942 -120.088864 87 27050ft 318kts
17-Dec-18 14:05 47.393549 -119.958112 88 27048ft 318kts
17-Dec-18 14:06 47.390069 -119.829121 88 26843ft 313kts
17-Dec-18 14:07 47.386460 -119.701211 89 26371ft 308kts
17-Dec-18 14:08 47.382811 -119.576481 89 26063ft 302kts
17-Dec-18 14:09 47.379083 -119.453267 90 25763ft 300kts
17-Dec-18 14:10 47.389061 -119.332218 77 25464ft 297kts
17-Dec-18 14:11 47.401921 -119.211792 78 25166ft 297kts
17-Dec-18 14:12 47.415050 -119.091270 79 24867ft 297kts
17-Dec-18 14:13 47.428174 -118.970509 80 24568ft 298kts
17-Dec-18 14:14 47.441170 -118.849690 81 24270ft 298kts
17-Dec-18 14:15 47.454112 -118.728160 82 23830ft 302kts
17-Dec-18 14:16 47.467183 -118.604119 83 23235ft 307kts
17-Dec-18 14:17 47.480183 -118.479456 84 22639ft 307kts
17-Dec-18 14:18 47.491284 -118.371870 84 22123ft 307kts
17-Dec-18 14:19 47.504060 -118.246769 85 21524ft 307kts
17-Dec-18 14:20 47.516681 -118.121800 85 20925ft 306kts
17-Dec-18 14:21 47.529132 -117.997100 85 20354ft 305kts
17-Dec-18 14:22 47.541379 -117.872991 86 19849ft 303kts
17-Dec-18 14:23 47.553449 -117.749375 86 19258ft 304kts
17-Dec-18 14:24 47.565674 -117.625321 82 18658ft 305kts
17-Dec-18 14:25 47.590245 -117.504559 76 18060ft 306kts
17-Dec-18 14:26 47.614797 -117.384507 76 17315ft 298kts
17-Dec-18 14:27 47.638262 -117.268688 76 16509ft 286kts
17-Dec-18 14:28 47.660612 -117.157599 76 15706ft 278kts
17-Dec-18 14:29 47.682669 -117.047440 76 14910ft 280kts
17-Dec-18 14:30 47.704684 -116.937030 76 14107ft 271kts
17-Dec-18 14:31 47.725307 -116.832813 76 13026ft 249kts
17-Dec-18 14:32 47.753071 -116.748394 32 11642ft 210kts
17-Dec-18 14:33 47.801715 -116.719812 15 10890ft 179kts
17-Dec-18 14:34 47.852373 -116.691844 16 10404ft 216kts
17-Dec-18 14:35 47.914127 -116.657841 16 10087ft 247kts
17-Dec-18 14:36 47.979421 -116.621793 17 9792ft 252kts
17-Dec-18 14:37 48.045470 -116.585240 17 9493ft 252kts
17-Dec-18 14:38 48.111366 -116.548674 17 9192ft 252kts
17-Dec-18 14:39 48.176909 -116.512203 17 8891ft 248kts
17-Dec-18 14:40 48.239611 -116.477192 17 8636ft 232kts
17-Dec-18 14:41 48.296489 -116.445280 17 8621ft 200kts
17-Dec-18 14:42 48.330610 -116.429318 356 8474ft 187kts
17-Dec-18 14:43 48.383790 -116.438984 351 7643ft 194kts
17-Dec-18 14:44 48.436542 -116.446682 350 6541ft 187kts
17-Dec-18 14:45 48.484922 -116.454066 351 5809ft 146kts
17-Dec-18 14:46 48.523157 -116.437617 22 5555ft 152kts
17-Dec-18 14:47 48.562492 -116.411270 23 4791ft 163kts
17-Dec-18 14:48 48.598756 -116.386815 22 5112ft 136kts
17-Dec-18 14:49 48.635007 -116.362274 24 4250ft 141kts
17-Dec-18 14:50 48.672503 -116.348417 17 3367ft 125kts
17-Dec-18 14:51 48.698505 -116.319067 43 2740ft 114kts
17-Dec-18 14:52 48.728273 -116.308111 358 3390ft 116kts
17-Dec-18 14:53 48.730072 -116.279060 160 3803ft 129kts
17-Dec-18 14:54 48.700422 -116.294718 210 3857ft 98kts
17-Dec-18 14:55 48.684677 -116.323420 300 4072ft 97kts
17-Dec-18 14:56 48.709828 -116.314384 35 2944ft 96kts
17-Dec-18 14:57 48.728017 -116.292696 39 2338ft 27kts
17-Dec-18 14:58 48.729657 -116.292608 142 2338ft 2kts

Navigation Log

Ident Type
Flight plan parsing failed, navigation log unavailable